Time;durP1;ratioP1;P1;durP2;ratioP2;P2;SDS_P1;SDS_P2;PMS_P1;PMS_P2;Temp;Humidity;BMP_temperature;BMP_pressure;BME280_temperature;BME280_humidity;BME280_pressure;Samples;Min_cycle;Max_cycle;Signal;HPM_P1;HPM_P2
2023/09/13 00:01:49;;;;;;;9.80;7.50;;;;;;;-142.57;55.37;115900.28;5038007;28;20110;-80
2023/09/13 00:04:15;;;;;;;10.43;7.40;;;;;;;-142.57;55.34;115900.28;5048769;28;20076;-78
2023/09/13 00:06:40;;;;;;;8.60;6.95;;;;;;;-142.57;54.95;115900.28;5057654;28;20029;-80
2023/09/13 00:09:06;;;;;;;16.98;7.60;;;;;;;-142.57;55.10;115900.28;5058154;28;20029;-79
2023/09/13 00:11:32;;;;;;;14.68;7.40;;;;;;;-142.57;56.08;115900.28;5055482;28;20399;-78
2023/09/13 00:13:58;;;;;;;12.43;6.95;;;;;;;-142.57;56.62;115900.28;5055291;28;20163;-80
2023/09/13 00:16:24;;;;;;;15.38;8.15;;;;;;;-142.57;57.32;115900.28;5055036;28;20565;-79
2023/09/13 00:18:51;;;;;;;13.07;7.22;;;;;;;-142.57;56.77;115900.28;5055314;28;20044;-78
2023/09/13 00:21:17;;;;;;;11.93;8.05;;;;;;;-142.57;56.59;115900.28;5053394;28;20435;-79
2023/09/13 00:23:44;;;;;;;15.43;7.65;;;;;;;-142.57;57.31;115900.28;5055244;28;20040;-79
2023/09/13 00:26:09;;;;;;;12.68;7.53;;;;;;;-142.57;57.73;115900.28;5054985;28;20068;-81
2023/09/13 00:28:35;;;;;;;16.70;7.65;;;;;;;-142.57;57.36;115900.28;5054857;28;20125;-81
2023/09/13 00:31:00;;;;;;;13.35;8.15;;;;;;;-142.57;57.63;115900.28;5054521;28;20044;-79
2023/09/13 00:33:26;;;;;;;10.50;7.18;;;;;;;-142.57;58.86;115900.28;5036022;28;20086;-80
2023/09/13 00:35:56;;;;;;;15.57;8.15;;;;;;;-142.57;59.19;115900.28;5054152;28;20040;-79
2023/09/13 00:38:22;;;;;;;11.30;7.40;;;;;;;-142.57;58.87;115900.28;5035046;28;20403;-79
2023/09/13 00:40:48;;;;;;;12.68;7.80;;;;;;;-142.57;58.44;115900.28;5054312;28;20025;-80
2023/09/13 00:43:13;;;;;;;18.23;7.90;;;;;;;-142.57;57.82;115900.28;5054208;28;20526;-79
2023/09/13 00:45:39;;;;;;;17.60;7.45;;;;;;;-142.57;57.30;115900.28;5036827;28;20036;-79
2023/09/13 00:48:06;;;;;;;12.88;7.82;;;;;;;-142.57;59.03;115900.28;5054330;28;20037;-80
2023/09/13 00:50:32;;;;;;;12.98;8.27;;;;;;;-142.57;60.35;115900.28;5035976;28;20033;-78
2023/09/13 00:52:58;;;;;;;13.02;7.97;;;;;;;-142.57;60.99;115900.28;5036062;28;20143;-78
2023/09/13 00:55:26;;;;;;;11.25;7.45;;;;;;;-142.57;61.06;115900.28;5053703;28;20124;-78
2023/09/13 00:57:54;;;;;;;15.80;8.98;;;;;;;-142.57;60.63;115900.28;5053771;28;20484;-78
2023/09/13 01:00:20;;;;;;;13.85;7.82;;;;;;;-142.57;60.48;115900.28;5034372;28;20041;-79
2023/09/13 01:02:49;;;;;;;19.50;8.30;;;;;;;-142.57;61.00;115900.28;5053795;28;20507;-79
2023/09/13 01:05:15;;;;;;;11.85;8.70;;;;;;;-142.57;60.68;115900.28;5035907;28;20116;-79
2023/09/13 01:07:41;;;;;;;15.23;8.05;;;;;;;-142.57;60.21;115900.28;5033694;28;20385;-78
2023/09/13 01:10:09;;;;;;;13.18;7.75;;;;;;;-142.57;61.47;115900.28;5053738;28;20029;-80
2023/09/13 01:12:34;;;;;;;14.65;8.43;;;;;;;-142.57;61.69;115900.28;5040420;28;20040;-79
2023/09/13 01:15:08;;;;;;;17.23;8.50;;;;;;;-142.57;61.53;115900.28;5034500;28;20037;-78
2023/09/13 01:17:52;;;;;;;16.48;8.48;;;;;;;-142.57;61.92;115900.28;5054183;28;20512;-78
2023/09/13 01:20:32;;;;;;;10.73;8.40;;;;;;;-142.57;62.50;115900.28;5054223;28;20031;-79
2023/09/13 01:23:35;;;;;;;14.13;8.85;;;;;;;-142.57;62.55;115900.28;5048634;28;20097;-77
2023/09/13 01:26:10;;;;;;;10.55;7.40;;;;;;;-142.57;63.27;115900.28;5041979;28;20120;-80
2023/09/13 01:28:40;;;;;;;17.27;8.43;;;;;;;-142.57;62.77;115900.28;5049437;28;20052;-77
2023/09/13 01:31:09;;;;;;;15.27;8.88;;;;;;;-142.57;62.08;115900.28;5041354;28;20112;-79
2023/09/13 01:33:36;;;;;;;15.52;8.32;;;;;;;-142.57;61.95;115900.28;5035542;28;20032;-78
2023/09/13 01:36:03;;;;;;;11.63;8.38;;;;;;;-142.57;63.45;115900.28;5016480;28;20044;-78
2023/09/13 01:38:29;;;;;;;11.85;8.13;;;;;;;-142.57;63.06;115900.28;5018327;28;20041;-78
2023/09/13 01:41:07;;;;;;;14.82;8.68;;;;;;;-142.57;63.08;115900.28;5034251;28;20476;-78
2023/09/13 01:43:34;;;;;;;12.85;8.98;;;;;;;-142.57;63.55;115900.28;5044351;28;20479;-78
2023/09/13 01:46:03;;;;;;;16.48;8.73;;;;;;;-142.57;62.81;115900.28;5053108;28;20071;-79
2023/09/13 01:48:29;;;;;;;18.55;8.55;;;;;;;-142.57;63.76;115900.28;5034632;28;20029;-78
2023/09/13 01:50:55;;;;;;;14.57;8.32;;;;;;;-142.57;62.91;115900.28;5052684;28;20029;-79
2023/09/13 01:53:21;;;;;;;16.98;8.85;;;;;;;-142.57;63.20;115900.28;5053147;28;20029;-79
2023/09/13 01:55:46;;;;;;;16.45;9.13;;;;;;;-142.57;63.27;115900.28;5052863;28;20130;-78
2023/09/13 01:58:12;;;;;;;18.98;8.98;;;;;;;-142.57;63.37;115900.28;5035131;28;20115;-79
2023/09/13 02:00:39;;;;;;;11.70;8.52;;;;;;;-142.57;63.50;115900.28;5034548;28;20021;-79
2023/09/13 02:03:05;;;;;;;15.00;9.52;;;;;;;-142.57;64.59;115900.28;5034775;28;20037;-78
2023/09/13 02:05:30;;;;;;;17.05;9.25;;;;;;;-142.57;63.66;115900.28;5034447;28;20060;-78
2023/09/13 02:07:56;;;;;;;17.25;9.15;;;;;;;-142.57;63.66;115900.28;5034712;28;20052;-79
2023/09/13 02:10:24;;;;;;;17.10;10.73;;;;;;;-142.57;63.05;115900.28;5034873;28;20079;-79
2023/09/13 02:12:50;;;;;;;14.32;8.40;;;;;;;-142.57;62.45;115900.28;5052326;28;20036;-79
2023/09/13 02:15:15;;;;;;;12.70;8.35;;;;;;;-142.57;63.00;115900.28;5052416;28;20033;-79
2023/09/13 02:17:41;;;;;;;14.38;7.65;;;;;;;-142.57;62.54;115900.28;5052583;28;20052;-77
2023/09/13 02:20:07;;;;;;;14.60;8.45;;;;;;;-142.57;62.81;115900.28;5052706;28;20025;-78
2023/09/13 02:22:33;;;;;;;15.98;8.60;;;;;;;-142.57;63.83;115900.28;5034483;28;20533;-78
2023/09/13 02:24:58;;;;;;;13.38;8.35;;;;;;;-142.57;63.60;115900.28;5035461;28;20079;-79
2023/09/13 02:27:28;;;;;;;12.65;8.80;;;;;;;-142.57;64.67;115900.28;5034776;28;20059;-78
2023/09/13 02:29:53;;;;;;;13.05;7.72;;;;;;;-142.57;63.97;115900.28;5067546;28;20036;-78
2023/09/13 02:32:19;;;;;;;13.68;9.07;;;;;;;-142.57;64.12;115900.28;5058505;28;20009;-79
2023/09/13 02:34:46;;;;;;;13.55;8.48;;;;;;;-142.57;64.11;115900.28;5073940;28;20055;-80
2023/09/13 02:37:11;;;;;;;17.13;9.15;;;;;;;-142.57;64.33;115900.28;5058874;28;20036;-82
2023/09/13 02:39:39;;;;;;;10.43;7.88;;;;;;;-142.57;64.33;115900.28;5046276;28;20041;-79
2023/09/13 02:42:06;;;;;;;12.35;8.75;;;;;;;-142.57;64.38;115900.28;5037270;28;20032;-78
2023/09/13 02:44:33;;;;;;;16.50;8.55;;;;;;;-142.57;63.97;115900.28;5034596;28;20487;-78
2023/09/13 02:46:59;;;;;;;14.73;8.15;;;;;;;-142.57;63.68;115900.28;5052235;28;20115;-80
2023/09/13 02:49:25;;;;;;;14.38;8.18;;;;;;;-142.57;63.62;115900.28;5017845;28;20037;-79
2023/09/13 02:51:54;;;;;;;18.13;8.85;;;;;;;-142.57;64.79;115900.28;5052242;28;20040;-79
2023/09/13 02:54:20;;;;;;;14.27;8.90;;;;;;;-142.57;64.31;115900.28;5033683;28;20029;-78
2023/09/13 02:56:52;;;;;;;15.13;8.68;;;;;;;-142.57;64.58;115900.28;5034118;28;20056;-77
2023/09/13 02:59:18;;;;;;;18.15;9.45;;;;;;;-142.57;64.64;115900.28;5033839;28;20043;-78
2023/09/13 03:01:44;;;;;;;12.02;8.52;;;;;;;-142.57;64.14;115900.28;5033083;28;20104;-80
2023/09/13 03:04:11;;;;;;;10.52;7.53;;;;;;;-142.57;63.24;115900.28;5034583;28;20051;-78
2023/09/13 03:06:38;;;;;;;13.60;9.00;;;;;;;-142.57;63.72;115900.28;5040332;28;20033;-79
2023/09/13 03:09:07;;;;;;;11.07;7.53;;;;;;;-142.57;63.35;115900.28;5014559;28;20053;-80
2023/09/13 03:11:37;;;;;;;11.93;7.90;;;;;;;-142.57;63.05;115900.28;5014450;28;20030;-79
2023/09/13 03:14:03;;;;;;;12.65;9.18;;;;;;;-142.57;64.06;115900.28;5032655;28;20119;-78
2023/09/13 03:16:29;;;;;;;15.40;9.10;;;;;;;-142.57;64.33;115900.28;5014201;28;20033;-79
2023/09/13 03:18:55;;;;;;;14.60;7.75;;;;;;;-142.57;63.60;115900.28;5009957;28;20149;-80
2023/09/13 03:21:25;;;;;;;10.93;8.48;;;;;;;-142.57;63.93;115900.28;5034131;28;20029;-79
2023/09/13 03:23:51;;;;;;;13.90;8.50;;;;;;;-142.57;63.60;115900.28;5033892;28;20037;-76
2023/09/13 03:26:22;;;;;;;10.43;8.10;;;;;;;-142.57;63.90;115900.28;5034329;28;20033;-78
2023/09/13 03:28:54;;;;;;;11.88;8.38;;;;;;;-142.57;65.00;115900.28;5033835;28;20491;-80
2023/09/13 03:31:21;;;;;;;17.80;9.43;;;;;;;-142.57;65.14;115900.28;5033871;28;20025;-79
2023/09/13 03:33:50;;;;;;;17.95;8.13;;;;;;;-142.57;64.93;115900.28;5051598;28;20017;-80
2023/09/13 03:36:16;;;;;;;11.68;8.82;;;;;;;-142.57;65.27;115900.28;5051547;28;20128;-79
2023/09/13 03:38:47;;;;;;;13.95;8.55;;;;;;;-142.57;64.94;115900.28;5033388;28;20029;-79
2023/09/13 03:41:17;;;;;;;14.40;8.75;;;;;;;-142.57;65.13;115900.28;5033479;28;20033;-79
2023/09/13 03:43:43;;;;;;;12.50;8.38;;;;;;;-142.57;63.56;115900.28;5051204;28;20392;-78
2023/09/13 03:46:08;;;;;;;16.45;9.15;;;;;;;-142.57;62.74;115900.28;5033376;28;20021;-81
2023/09/13 03:48:37;;;;;;;9.50;8.02;;;;;;;-142.57;63.63;115900.28;5033458;28;20408;-78
2023/09/13 03:51:03;;;;;;;12.45;7.57;;;;;;;-142.57;63.22;115900.28;5016929;28;20041;-78
2023/09/13 03:53:29;;;;;;;9.40;7.22;;;;;;;-142.57;63.18;115900.28;5033361;28;20029;-80
2023/09/13 03:55:56;;;;;;;9.60;7.28;;;;;;;-142.57;62.68;115900.28;5033482;28;20084;-80
2023/09/13 03:58:23;;;;;;;9.32;7.45;;;;;;;-142.57;62.79;115900.28;5016868;28;20036;-80
2023/09/13 04:00:49;;;;;;;13.55;7.38;;;;;;;-142.57;62.03;115900.28;5050048;28;20154;-80
2023/09/13 04:03:16;;;;;;;13.93;7.80;;;;;;;-142.57;62.22;115900.28;5051211;28;20029;-79
2023/09/13 04:05:41;;;;;;;11.25;7.47;;;;;;;-142.57;62.58;115900.28;5049734;28;20036;-80
2023/09/13 04:08:07;;;;;;;18.67;7.93;;;;;;;-142.57;62.66;115900.28;5043076;28;20029;-79
2023/09/13 04:10:32;;;;;;;8.90;6.82;;;;;;;-142.57;61.24;115900.28;5050990;28;20156;-79
2023/09/13 04:12:58;;;;;;;11.57;7.25;;;;;;;-142.57;60.22;115900.28;5054253;28;20373;-80
2023/09/13 04:15:23;;;;;;;12.13;7.53;;;;;;;-142.57;58.81;115900.28;5055123;28;20060;-80
2023/09/13 04:17:50;;;;;;;14.90;6.85;;;;;;;-142.57;58.37;115900.28;5054684;28;20037;-78
2023/09/13 04:20:16;;;;;;;11.05;6.15;;;;;;;-142.57;57.67;115900.28;5054604;28;20033;-78
2023/09/13 04:22:42;;;;;;;17.08;7.13;;;;;;;-142.57;59.55;115900.28;5036579;28;20107;-77
2023/09/13 04:25:09;;;;;;;17.90;7.60;;;;;;;-142.57;61.40;115900.28;5036720;28;20037;-81
2023/09/13 04:27:36;;;;;;;16.38;7.38;;;;;;;-142.57;62.41;115900.28;5036499;28;20068;-79
2023/09/13 04:30:05;;;;;;;11.15;7.10;;;;;;;-142.57;62.31;115900.28;5036491;28;20077;-80
2023/09/13 04:32:31;;;;;;;11.88;7.65;;;;;;;-142.57;61.87;115900.28;5036510;28;20086;-78
2023/09/13 04:34:57;;;;;;;13.18;7.10;;;;;;;-142.57;61.14;115900.28;5054218;28;20032;-78
2023/09/13 04:37:24;;;;;;;12.18;7.18;;;;;;;-142.57;61.82;115900.28;5036457;28;20043;-80
2023/09/13 04:39:49;;;;;;;16.52;7.25;;;;;;;-142.57;61.91;115900.28;5036301;28;20037;-79
2023/09/13 04:42:17;;;;;;;13.55;6.60;;;;;;;-142.57;61.45;115900.28;5054205;28;20029;-80
2023/09/13 04:44:42;;;;;;;20.40;8.02;;;;;;;-142.57;61.40;115900.28;5019949;28;20029;-80
2023/09/13 04:47:08;;;;;;;14.95;7.43;;;;;;;-142.57;61.66;115900.28;5036213;28;20448;-79
2023/09/13 04:49:36;;;;;;;20.13;8.43;;;;;;;-142.57;61.91;115900.28;5032343;28;20033;-78
2023/09/13 04:52:03;;;;;;;14.13;7.18;;;;;;;-142.57;61.89;115900.28;5054425;28;20072;-79
2023/09/13 04:54:29;;;;;;;12.15;7.38;;;;;;;-142.57;62.58;115900.28;5036011;28;20032;-78
2023/09/13 04:56:54;;;;;;;13.45;7.05;;;;;;;-142.57;62.30;115900.28;5054210;28;20037;-80
2023/09/13 04:59:24;;;;;;;13.50;7.55;;;;;;;-142.57;62.43;115900.28;5054303;28;20179;-79
2023/09/13 05:01:50;;;;;;;21.25;7.97;;;;;;;-142.57;63.27;115900.28;5036200;28;20024;-81
2023/09/13 05:04:15;;;;;;;12.20;8.02;;;;;;;-142.57;63.28;115900.28;5051061;28;20055;-86
2023/09/13 05:06:41;;;;;;;15.13;7.80;;;;;;;-142.57;63.08;115900.28;5054580;28;20410;-83
2023/09/13 05:09:06;;;;;;;12.68;7.30;;;;;;;-142.57;63.16;115900.28;5054562;28;20042;-79
2023/09/13 05:11:32;;;;;;;11.55;7.75;;;;;;;-142.57;63.53;115900.28;5053928;28;20400;-80
2023/09/13 05:14:14;;;;;;;14.25;7.68;;;;;;;-142.57;62.73;115900.28;5054882;28;20029;-81
2023/09/13 05:16:40;;;;;;;;;;;;;;;-142.57;62.32;115900.28;5054906;28;20037;-82
2023/09/13 05:19:06;;;;;;;14.75;7.95;;;;;;;-142.57;63.37;115900.28;5054393;28;19924;-82
2023/09/13 05:21:32;;;;;;;14.13;7.97;;;;;;;-142.57;62.54;115900.28;5054412;28;20554;-82
2023/09/13 05:23:58;;;;;;;12.25;6.95;;;;;;;-142.57;62.67;115900.28;5057866;28;20025;-82
2023/09/13 05:26:23;;;;;;;16.27;7.45;;;;;;;-142.57;62.35;115900.28;5035913;28;20407;-81
2023/09/13 05:28:49;;;;;;;18.58;8.02;;;;;;;-142.57;63.16;115900.28;5054352;28;20036;-79
2023/09/13 05:31:15;;;;;;;13.43;7.88;;;;;;;-142.57;63.20;115900.28;5054284;28;20120;-80
2023/09/13 05:33:40;;;;;;;14.35;8.45;;;;;;;-142.57;62.84;115900.28;5036286;28;20037;-82
2023/09/13 05:36:13;;;;;;;19.70;7.35;;;;;;;-142.57;61.86;115900.28;5054610;28;20087;-80
2023/09/13 05:38:39;;;;;;;18.67;8.40;;;;;;;-142.57;62.26;115900.28;5054303;28;20048;-83
2023/09/13 05:41:08;;;;;;;20.15;8.73;;;;;;;-142.57;62.22;115900.28;5058704;28;20033;-80
2023/09/13 05:43:38;;;;;;;18.60;7.75;;;;;;;-142.57;63.00;115900.28;5044553;28;20033;-82
2023/09/13 05:46:04;;;;;;;12.65;7.72;;;;;;;-142.57;62.06;115900.28;5049068;28;20061;-84
2023/09/13 05:48:29;;;;;;;22.25;7.57;;;;;;;-142.57;60.96;115900.28;5038773;28;20048;-82
2023/09/13 05:50:55;;;;;;;13.20;6.78;;;;;;;-142.57;59.69;115900.28;5046778;28;20062;-80
2023/09/13 05:53:21;;;;;;;25.38;8.70;;;;;;;-142.57;61.72;115900.28;5055052;28;20384;-82
2023/09/13 05:55:47;;;;;;;18.20;7.43;;;;;;;-142.57;62.08;115900.28;5054613;28;20537;-86
2023/09/13 05:58:13;;;;;;;9.63;6.82;;;;;;;-142.57;62.75;115900.28;5066874;28;20029;-80
2023/09/13 06:00:41;;;;;;;38.88;9.23;;;;;;;-142.57;62.81;115900.28;5073562;28;20092;-79
2023/09/13 06:03:06;;;;;;;14.93;8.13;;;;;;;-142.57;62.04;115900.28;5069587;28;20040;-80
2023/09/13 06:05:32;;;;;;;17.83;9.25;;;;;;;-142.57;64.21;115900.28;5074963;28;20132;-82
2023/09/13 06:07:57;;;;;;;15.95;9.43;;;;;;;-142.57;64.33;115900.28;5064017;28;20029;-79
2023/09/13 06:10:23;;;;;;;23.92;10.18;;;;;;;-142.57;64.29;115900.28;5055661;28;20033;-82
2023/09/13 06:12:48;;;;;;;21.33;8.77;;;;;;;-142.57;65.94;115900.28;5056395;28;20037;-82
2023/09/13 06:15:14;;;;;;;22.23;9.35;;;;;;;-142.57;67.14;115900.28;5036446;28;20037;-80
2023/09/13 06:17:40;;;;;;;20.25;9.85;;;;;;;-142.57;66.46;115900.28;5053717;28;20033;-82
2023/09/13 06:20:06;;;;;;;25.98;10.93;;;;;;;-142.57;66.62;115900.28;5053138;28;20025;-85
2023/09/13 06:22:32;;;;;;;22.02;10.70;;;;;;;-142.57;66.43;115900.28;5054215;28;20108;-86
2023/09/13 06:25:01;;;;;;;34.97;11.38;;;;;;;-142.57;67.62;115900.28;5054256;28;20461;-84
2023/09/13 06:27:27;;;;;;;21.33;10.93;;;;;;;-142.57;67.58;115900.28;5057172;28;20029;-86
2023/09/13 06:29:52;;;;;;;26.02;11.10;;;;;;;-142.57;68.66;115900.28;5056111;28;20495;-84
2023/09/13 06:32:18;;;;;;;25.35;11.77;;;;;;;-142.57;67.96;115900.28;5058957;28;20084;-83
2023/09/13 06:34:46;;;;;;;21.25;11.63;;;;;;;-142.57;66.52;115900.28;5057156;28;20025;-84
2023/09/13 06:37:12;;;;;;;23.40;11.65;;;;;;;-142.57;65.77;115900.28;5057013;28;20116;-82
2023/09/13 06:39:38;;;;;;;19.60;10.98;;;;;;;-142.57;65.16;115900.28;5058157;28;20055;-83
2023/09/13 06:42:04;;;;;;;19.13;11.63;;;;;;;-142.57;64.09;115900.28;5038018;28;20119;-82
2023/09/13 06:44:30;;;;;;;29.52;11.27;;;;;;;-142.57;64.32;115900.28;5056470;28;20058;-86
2023/09/13 06:46:56;;;;;;;20.90;10.52;;;;;;;-142.57;65.21;115900.28;5058380;28;20097;-83
2023/09/13 06:49:21;;;;;;;21.20;11.27;;;;;;;-142.57;64.66;115900.28;5055981;28;20069;-87
2023/09/13 06:51:47;;;;;;;21.63;11.90;;;;;;;-142.57;64.36;115900.28;5055592;28;20096;-84
2023/09/13 06:54:12;;;;;;;33.53;12.15;;;;;;;-142.57;63.97;115900.28;5057426;28;20040;-84
2023/09/13 06:56:40;;;;;;;49.40;23.70;;;;;;;-142.57;64.21;115900.28;5040033;28;20029;-88
2023/09/13 06:59:06;;;;;;;40.85;17.80;;;;;;;-142.57;64.05;115900.28;5055951;28;20457;-84
2023/09/13 07:01:32;;;;;;;22.13;11.70;;;;;;;-142.57;64.16;115900.28;5055930;28;20029;-82
2023/09/13 07:03:57;;;;;;;19.58;10.80;;;;;;;-142.57;63.09;115900.28;5055883;28;20087;-85
2023/09/13 07:06:23;;;;;;;18.67;10.02;;;;;;;-142.57;63.23;115900.28;5054652;28;20076;-82
2023/09/13 07:08:49;;;;;;;24.10;10.32;;;;;;;-142.57;63.30;115900.28;5042198;28;20176;-86
2023/09/13 07:11:18;;;;;;;19.38;9.60;;;;;;;-142.57;62.78;115900.28;5057576;28;20032;-82
2023/09/13 07:13:43;;;;;;;22.83;8.48;;;;;;;-142.57;62.24;115900.28;5060083;28;20480;-84
2023/09/13 07:16:09;;;;;;;25.73;9.18;;;;;;;-142.57;62.12;115900.28;5058845;28;20036;-85
2023/09/13 07:18:34;;;;;;;24.83;8.77;;;;;;;-142.57;62.62;115900.28;5040595;28;20052;-88
2023/09/13 07:21:00;;;;;;;30.13;11.95;;;;;;;-142.57;62.71;115900.28;5056482;28;20468;-83
2023/09/13 07:23:27;;;;;;;31.27;11.32;;;;;;;-142.57;64.29;115900.28;5057399;28;20041;-83
2023/09/13 07:25:52;;;;;;;39.63;11.85;;;;;;;-142.57;64.83;115900.28;5057302;28;20037;-83
2023/09/13 07:28:18;;;;;;;29.33;11.05;;;;;;;-142.57;62.26;115900.28;5039140;28;20065;-84
2023/09/13 07:30:44;;;;;;;25.48;11.10;;;;;;;-142.57;62.94;115900.28;5058986;28;20068;-83
2023/09/13 07:33:10;;;;;;;25.42;10.18;;;;;;;-142.57;64.18;115900.28;5039092;28;20051;-81
2023/09/13 07:35:35;;;;;;;22.25;11.43;;;;;;;-142.57;66.68;115900.28;5059685;28;20096;-83
2023/09/13 07:38:01;;;;;;;24.92;10.93;;;;;;;-142.57;67.31;115900.28;5043685;28;20055;-82
2023/09/13 07:40:26;;;;;;;21.02;10.57;;;;;;;-142.57;66.52;115900.28;5059302;28;20037;-83
2023/09/13 07:42:52;;;;;;;28.63;10.68;;;;;;;-142.57;65.14;115900.28;5061276;28;20123;-81
2023/09/13 07:45:31;;;;;;;31.42;10.35;;;;;;;-142.57;62.81;115900.28;5043694;28;20033;-85
2023/09/13 07:48:02;;;;;;;21.98;9.25;;;;;;;-142.57;62.08;115900.28;5065372;28;20098;-84
2023/09/13 07:50:47;;;;;;;20.05;9.52;;;;;;;-142.57;61.88;115900.28;5048642;28;20091;-82
2023/09/13 07:53:12;;;;;;;19.85;9.32;;;;;;;-142.57;63.94;115900.28;5066856;28;20029;-81
2023/09/13 07:55:39;;;;;;;24.73;10.25;;;;;;;-142.57;64.96;115900.28;5064468;28;20138;-80
2023/09/13 07:58:06;;;;;;;18.95;7.57;;;;;;;-142.57;62.78;115900.28;5062844;28;20060;-82
2023/09/13 08:00:31;;;;;;;16.23;7.93;;;;;;;-142.57;63.41;115900.28;5064081;28;20033;-82
2023/09/13 08:03:02;;;;;;;17.42;9.00;;;;;;;-142.57;63.18;115900.28;5066294;28;20037;-82
2023/09/13 08:05:28;;;;;;;15.07;7.43;;;;;;;-142.57;62.20;115900.28;5066859;28;20088;-84
2023/09/13 08:07:58;;;;;;;26.88;7.07;;;;;;;-142.57;61.93;115900.28;5061405;28;20063;-88
2023/09/13 08:10:24;;;;;;;13.27;6.68;;;;;;;-142.57;60.66;115900.28;5046287;28;20033;-86
2023/09/13 08:12:51;;;;;;;12.02;7.53;;;;;;;-142.57;59.95;115900.28;5063906;28;20025;-86
2023/09/13 08:15:17;;;;;;;24.52;9.52;;;;;;;-142.57;60.03;115900.28;5063067;28;20025;-85
2023/09/13 08:17:43;;;;;;;22.90;10.13;;;;;;;-142.57;60.58;115900.28;5043978;28;20166;-84
2023/09/13 08:20:11;;;;;;;26.90;10.98;;;;;;;-142.57;60.55;115900.28;5055684;28;20029;-83
2023/09/13 08:22:37;;;;;;;31.08;10.95;;;;;;;-142.57;61.05;115900.28;5063239;28;20137;-86
2023/09/13 08:25:07;;;;;;;25.02;11.60;;;;;;;-142.57;61.28;115900.28;5061878;28;20039;-84
2023/09/13 08:27:33;;;;;;;27.05;12.00;;;;;;;-142.57;61.70;115900.28;5065776;28;20079;-84
2023/09/13 08:30:01;;;;;;;39.67;12.00;;;;;;;-142.57;61.47;115900.28;5065611;28;20021;-84
2023/09/13 08:32:27;;;;;;;24.25;11.80;;;;;;;-142.57;61.75;115900.28;5045823;28;20044;-84
2023/09/13 08:34:52;;;;;;;20.38;9.95;;;;;;;-142.57;60.59;115900.28;5064606;28;20029;-91
2023/09/13 08:37:18;;;;;;;23.38;9.00;;;;;;;-142.57;59.48;115900.28;5064684;28;20028;-85
2023/09/13 08:39:45;;;;;;;24.92;9.82;;;;;;;-142.57;60.16;115900.28;5068530;28;20064;-84
2023/09/13 08:42:11;;;;;;;22.40;10.20;;;;;;;-142.57;60.11;115900.28;5055245;28;20025;-83
2023/09/13 08:44:44;;;;;;;29.90;11.35;;;;;;;-142.57;60.47;115900.28;5053995;28;20055;-85
2023/09/13 08:47:11;;;;;;;23.42;15.02;;;;;;;-142.57;60.95;115900.28;5070691;28;20108;-83
2023/09/13 08:49:38;;;;;;;29.50;18.85;;;;;;;-142.57;61.54;115900.28;5062410;28;20036;-84
2023/09/13 08:52:05;;;;;;;31.48;19.17;;;;;;;-142.57;61.55;115900.28;5045303;28;20230;-84
2023/09/13 08:54:33;;;;;;;36.08;20.10;;;;;;;-142.57;61.45;115900.28;5063004;28;20029;-84
2023/09/13 08:57:00;;;;;;;34.60;18.88;;;;;;;-142.57;61.44;115900.28;5044184;28;20055;-86
2023/09/13 08:59:25;;;;;;;29.10;19.73;;;;;;;-142.57;60.31;115900.28;5052198;28;20476;-83
2023/09/13 09:01:53;;;;;;;38.20;17.88;;;;;;;-142.57;57.51;115900.28;5023548;28;20043;-82
2023/09/13 09:04:22;;;;;;;31.77;17.30;;;;;;;-142.57;55.22;115900.28;5024531;28;20421;-86
2023/09/13 09:06:47;;;;;;;31.88;13.77;;;;;;;-142.57;50.95;115900.28;5041952;28;20051;-85
2023/09/13 09:09:19;;;;;;;30.80;14.25;;;;;;;-142.57;48.50;115900.28;5058939;28;20116;-88
2023/09/13 09:11:51;;;;;;;19.42;12.52;;;;;;;-142.57;45.77;115900.28;5043653;28;20041;-86
2023/09/13 09:14:19;;;;;;;26.90;11.13;;;;;;;-142.57;43.51;115900.28;5060756;28;20082;-87
2023/09/13 09:16:51;;;;;;;23.13;10.90;;;;;;;-142.57;43.23;115900.28;5060814;28;20029;-85
2023/09/13 09:19:16;;;;;;;18.98;10.20;;;;;;;-142.57;41.93;115900.28;5061784;28;20032;-85
2023/09/13 09:21:42;;;;;;;21.05;8.63;;;;;;;-142.57;40.58;115900.28;5042773;28;20033;-85
2023/09/13 09:24:08;;;;;;;15.13;8.52;;;;;;;-142.57;39.37;115900.28;5055045;28;20393;-81
2023/09/13 09:26:33;;;;;;;16.15;7.53;;;;;;;-142.57;37.96;115900.28;5039442;28;20095;-81
2023/09/13 09:29:18;;;;;;;14.45;7.22;;;;;;;-142.57;37.56;115900.28;5042054;28;20369;-81
2023/09/13 09:31:44;;;;;;;10.52;6.28;;;;;;;-142.57;37.40;115900.28;5043090;28;20044;-79
2023/09/13 09:34:10;;;;;;;18.05;6.78;;;;;;;-142.57;37.70;115900.28;5043461;28;20033;-82
2023/09/13 09:36:46;;;;;;;17.92;7.28;;;;;;;-142.57;38.27;115900.28;5038146;28;20034;-82
2023/09/13 09:39:15;;;;;;;17.27;8.23;;;;;;;-142.57;38.51;115900.28;5041402;28;20033;-83
2023/09/13 09:41:41;;;;;;;18.40;7.18;;;;;;;-142.57;39.44;115900.28;5051705;28;20128;-81
2023/09/13 09:44:06;;;;;;;16.80;6.82;;;;;;;-142.57;40.07;115900.28;5056580;28;20037;-80
2023/09/13 09:46:33;;;;;;;16.70;6.25;;;;;;;-142.57;39.52;115900.28;5056362;28;20025;-82
2023/09/13 09:49:04;;;;;;;13.00;6.32;;;;;;;-142.57;39.88;115900.28;5058216;28;20116;-82
2023/09/13 09:51:33;;;;;;;10.15;6.63;;;;;;;-142.57;39.62;115900.28;5061902;28;20040;-82
2023/09/13 09:53:59;;;;;;;12.23;5.93;;;;;;;-142.57;39.07;115900.28;5058072;28;20032;-80
2023/09/13 09:56:28;;;;;;;13.65;6.35;;;;;;;-142.57;37.44;115900.28;5041040;28;20033;-81
2023/09/13 09:58:56;;;;;;;10.50;6.30;;;;;;;-142.57;37.69;115900.28;5059446;28;20036;-82
2023/09/13 10:01:22;;;;;;;12.75;6.72;;;;;;;-142.57;39.14;115900.28;5063343;28;20029;-84
2023/09/13 10:03:54;;;;;;;10.05;6.40;;;;;;;-142.57;38.85;115900.28;5067324;28;20036;-81
2023/09/13 10:06:20;;;;;;;15.00;6.00;;;;;;;-142.57;37.90;115900.28;5085411;22;20045;-80
2023/09/13 10:08:48;;;;;;;14.75;6.90;;;;;;;-142.57;37.64;115900.28;5056757;28;20113;-80
2023/09/13 10:11:20;;;;;;;10.73;6.38;;;;;;;-142.57;36.88;115900.28;5054531;28;20030;-82
2023/09/13 10:13:48;;;;;;;10.55;5.63;;;;;;;-142.57;35.89;115900.28;5050883;28;21217;-82
2023/09/13 10:16:15;;;;;;;10.93;5.45;;;;;;;-142.57;35.76;115900.28;5055541;28;20040;-83
2023/09/13 10:18:43;;;;;;;11.50;5.35;;;;;;;-142.57;36.26;115900.28;5062596;28;20045;-80
2023/09/13 10:21:10;;;;;;;10.60;5.55;;;;;;;-142.57;36.20;115900.28;5063442;28;20036;-81
2023/09/13 10:24:00;;;;;;;12.57;5.68;;;;;;;-142.57;35.56;115900.28;5060637;28;20112;-82
2023/09/13 10:26:29;;;;;;;8.57;5.65;;;;;;;-142.57;35.12;115900.28;5058123;28;20425;-81
2023/09/13 10:29:17;;;;;;;9.68;5.30;;;;;;;-142.57;35.58;115900.28;5062841;28;20088;-86
2023/09/13 10:31:49;;;;;;;14.02;6.13;;;;;;;-142.57;35.13;115900.28;5064593;28;20056;-81
2023/09/13 10:34:26;;;;;;;10.73;5.07;;;;;;;-142.57;34.15;115900.28;5059496;28;20045;-83
2023/09/13 10:37:33;;;;;;;15.23;5.22;;;;;;;-142.57;33.57;115900.28;5059102;28;20094;-82
2023/09/13 10:40:20;;;;;;;9.90;5.80;;;;;;;-142.57;33.12;115900.28;5058780;28;20033;-78
2023/09/13 10:42:46;;;;;;;10.88;5.55;;;;;;;-142.57;32.54;115900.28;5063713;28;20037;-80
2023/09/13 10:45:17;;;;;;;10.30;5.80;;;;;;;-142.57;30.90;115900.28;5056504;28;20494;-82
2023/09/13 10:47:46;;;;;;;10.33;5.30;;;;;;;-142.57;30.34;115900.28;5059520;28;20029;-81
2023/09/13 10:50:14;;;;;;;9.85;5.05;;;;;;;-142.57;29.55;115900.28;5057034;28;20075;-82
2023/09/13 10:52:41;;;;;;;13.00;5.70;;;;;;;-142.57;28.94;115900.28;5060114;28;20033;-79
2023/09/13 10:55:11;;;;;;;6.88;5.10;;;;;;;-142.57;29.32;115900.28;5057708;28;20154;-80
2023/09/13 10:57:41;;;;;;;8.88;5.38;;;;;;;-142.57;29.18;115900.28;5059411;28;20044;-81
2023/09/13 11:00:11;;;;;;;6.70;4.85;;;;;;;-142.57;30.22;115900.28;5058002;28;20044;-81
2023/09/13 11:02:41;;;;;;;6.50;4.70;;;;;;;-142.57;30.96;115900.28;5058413;28;20064;-82